Time;durP1;ratioP1;P1;durP2;ratioP2;P2;SDS_P1;SDS_P2;PMS_P1;PMS_P2;Temp;Humidity;BMP_temperature;BMP_pressure;BME280_temperature;BME280_humidity;BME280_pressure;Samples;Min_cycle;Max_cycle;Signal;HPM_P1;HPM_P2
2023/02/06 00:01:22;;;;;;;39.50;29.02;;;;;;;-0.38;100.00;104013.75;10063057;28;20083;-67
2023/02/06 00:06:19;;;;;;;31.70;27.52;;;;;;;-0.39;100.00;104014.75;10074487;28;20592;-68
2023/02/06 00:11:16;;;;;;;33.30;27.40;;;;;;;-0.44;100.00;104022.47;10100990;28;20620;-66
2023/02/06 00:16:26;;;;;;;30.25;27.05;;;;;;;-0.44;100.00;104030.53;10092335;28;20576;-66
2023/02/06 00:21:24;;;;;;;30.35;27.23;;;;;;;-0.46;100.00;104028.00;10098565;28;20062;-66
2023/02/06 00:26:22;;;;;;;32.90;26.77;;;;;;;-0.46;100.00;104032.53;10094460;28;20094;-67
2023/02/06 00:31:18;;;;;;;29.45;25.77;;;;;;;-0.45;100.00;104031.53;10102929;28;20077;-67
2023/02/06 00:36:15;;;;;;;32.58;27.35;;;;;;;-0.52;100.00;104025.13;10090075;28;20055;-67
2023/02/06 00:41:11;;;;;;;29.13;24.80;;;;;;;-0.55;100.00;104033.50;10060373;28;20114;-67
2023/02/06 00:46:08;;;;;;;29.00;25.90;;;;;;;-0.53;100.00;104018.06;10042121;28;20391;-68
2023/02/06 00:51:05;;;;;;;27.13;23.05;;;;;;;-0.58;100.00;104017.69;10053140;28;20058;-68
2023/02/06 00:56:01;;;;;;;27.27;24.40;;;;;;;-0.59;100.00;104018.72;10052293;28;20047;-68
2023/02/06 01:00:57;;;;;;;27.75;24.70;;;;;;;-0.60;100.00;104028.63;10054339;28;20059;-68
2023/02/06 01:05:54;;;;;;;24.35;21.92;;;;;;;-0.59;100.00;104024.09;10071644;28;20058;-68
2023/02/06 01:10:51;;;;;;;29.33;22.48;;;;;;;-0.58;100.00;104025.75;10108606;28;20138;-68
2023/02/06 01:15:47;;;;;;;23.85;21.58;;;;;;;-0.62;100.00;104005.59;10107933;28;20074;-68
2023/02/06 01:20:46;;;;;;;24.35;21.27;;;;;;;-0.57;100.00;104014.03;10111799;28;20050;-69
2023/02/06 01:25:42;;;;;;;23.75;21.42;;;;;;;-0.62;100.00;104002.91;10111091;28;20092;-68
2023/02/06 01:30:39;;;;;;;24.63;22.00;;;;;;;-0.65;100.00;104009.44;10107677;28;20043;-68
2023/02/06 01:35:35;;;;;;;26.48;21.92;;;;;;;-0.65;100.00;104004.06;10106544;28;20101;-68
2023/02/06 01:40:32;;;;;;;22.42;20.08;;;;;;;-0.66;100.00;104019.34;10107362;28;20055;-68
2023/02/06 01:45:33;;;;;;;30.65;19.88;;;;;;;-0.66;100.00;104031.94;10102696;28;20504;-69
2023/02/06 01:50:32;;;;;;;33.38;20.77;;;;;;;-0.71;100.00;104021.69;10108844;28;20078;-69
2023/02/06 01:55:29;;;;;;;22.40;20.30;;;;;;;-0.69;100.00;104030.44;10110378;28;20077;-69
2023/02/06 02:00:26;;;;;;;22.52;20.27;;;;;;;-0.71;100.00;104045.03;10106357;28;20600;-69
2023/02/06 02:05:22;;;;;;;25.05;21.00;;;;;;;-0.69;100.00;104045.72;11126375;23;20298;-65
2023/02/06 02:10:20;;;;;;;23.50;21.08;;;;;;;-0.81;100.00;104037.09;10044853;28;20090;-66
2023/02/06 02:15:16;;;;;;;24.77;22.23;;;;;;;-0.76;100.00;104036.63;10104037;28;20109;-66
2023/02/06 02:20:49;;;;;;;24.63;21.10;;;;;;;-0.77;100.00;104033.06;10099707;28;20476;-66
2023/02/06 02:26:31;;;;;;;22.02;19.73;;;;;;;-0.85;100.00;104041.09;10098267;28;20079;-66
2023/02/06 02:32:03;;;;;;;23.65;19.92;;;;;;;-0.90;100.00;104038.06;10084981;28;20047;-66
2023/02/06 02:37:03;;;;;;;22.00;19.30;;;;;;;-0.92;100.00;104054.31;10089840;28;20516;-67
2023/02/06 02:42:12;;;;;;;24.23;21.35;;;;;;;-0.96;100.00;104062.84;10098173;28;20126;-67
2023/02/06 02:47:13;;;;;;;23.13;20.88;;;;;;;-1.01;100.00;104057.97;10099411;28;20146;-67
2023/02/06 02:52:10;;;;;;;25.35;20.83;;;;;;;-0.96;100.00;104070.91;10086589;28;20421;-67
2023/02/06 02:57:19;;;;;;;26.13;20.52;;;;;;;-0.93;100.00;104043.72;10093442;28;20051;-67
2023/02/06 03:02:24;;;;;;;20.40;17.63;;;;;;;-0.96;100.00;104044.06;10095127;28;20389;-67
2023/02/06 03:08:00;;;;;;;25.80;18.63;;;;;;;-0.93;100.00;104016.88;10087772;28;20504;-67
2023/02/06 03:13:05;;;;;;;21.40;16.85;;;;;;;-0.97;100.00;103997.56;10077090;28;20047;-69
2023/02/06 03:18:10;;;;;;;19.77;17.58;;;;;;;-0.92;100.00;103986.31;10081120;28;20138;-67
2023/02/06 03:23:10;;;;;;;23.83;17.52;;;;;;;-0.83;100.00;103989.91;10089432;28;20153;-66
2023/02/06 03:28:26;;;;;;;25.10;18.67;;;;;;;-0.86;100.00;104001.78;10088857;28;20137;-66
2023/02/06 03:33:27;;;;;;;20.27;18.33;;;;;;;-0.91;100.00;103998.75;10099427;28;20181;-67
2023/02/06 03:38:25;;;;;;;23.85;18.15;;;;;;;-0.86;100.00;103996.41;10093471;28;20141;-67
2023/02/06 03:43:26;;;;;;;20.73;17.75;;;;;;;-0.83;100.00;103996.09;10100675;28;20240;-68
2023/02/06 03:48:28;;;;;;;19.75;17.73;;;;;;;-0.89;100.00;103969.88;10086444;28;20093;-67
2023/02/06 03:53:25;;;;;;;21.77;18.58;;;;;;;-0.85;100.00;103976.63;10083356;28;20553;-66
2023/02/06 03:58:21;;;;;;;20.38;18.52;;;;;;;-0.91;100.00;103982.63;10093236;28;20134;-66
2023/02/06 04:03:21;;;;;;;24.75;18.63;;;;;;;-0.90;100.00;103981.63;10082800;28;20110;-67
2023/02/06 04:08:18;;;;;;;21.75;19.17;;;;;;;-0.92;100.00;103991.69;10080253;28;20054;-67
2023/02/06 04:13:14;;;;;;;20.95;18.75;;;;;;;-0.93;100.00;103995.38;10088424;28;20134;-67
2023/02/06 04:18:10;;;;;;;24.27;19.50;;;;;;;-0.93;100.00;103990.00;10101717;28;20074;-67
2023/02/06 04:23:07;;;;;;;29.80;19.98;;;;;;;-1.00;100.00;103991.66;10093461;28;20441;-66
2023/02/06 04:28:04;;;;;;;24.50;20.70;;;;;;;-0.99;100.00;103985.28;10082064;28;20047;-66
2023/02/06 04:33:00;;;;;;;24.98;20.30;;;;;;;-1.03;100.00;103983.91;10077366;28;20046;-67
2023/02/06 04:37:57;;;;;;;23.60;18.85;;;;;;;-1.04;100.00;103987.59;10087644;28;20078;-67
2023/02/06 04:42:53;;;;;;;31.63;20.33;;;;;;;-1.05;100.00;103981.38;10098415;28;20055;-67
2023/02/06 04:47:50;;;;;;;20.90;18.55;;;;;;;-1.18;100.00;103981.81;10085938;28;20588;-67
2023/02/06 04:52:46;;;;;;;20.55;18.42;;;;;;;-1.17;100.00;103988.88;10097097;28;20448;-67
2023/02/06 04:57:43;;;;;;;21.13;19.23;;;;;;;-1.09;100.00;103997.00;10102981;28;20408;-66
2023/02/06 05:02:39;;;;;;;25.80;20.15;;;;;;;-1.18;100.00;103997.94;10095353;28;20419;-66
2023/02/06 05:07:36;;;;;;;23.30;20.20;;;;;;;-1.11;100.00;103999.00;10100309;28;20071;-66
2023/02/06 05:12:32;;;;;;;27.02;21.40;;;;;;;-1.06;100.00;103996.66;10093909;28;20082;-66
2023/02/06 05:17:29;;;;;;;25.65;22.92;;;;;;;-1.03;100.00;104008.09;10096119;28;20059;-68
2023/02/06 05:22:25;;;;;;;25.00;22.52;;;;;;;-1.20;100.00;103997.25;10080215;28;20043;-68
2023/02/06 05:27:23;;;;;;;26.30;21.38;;;;;;;-1.13;100.00;104001.00;10089672;28;20039;-69
2023/02/06 05:32:19;;;;;;;29.00;20.15;;;;;;;-1.16;100.00;103998.63;10094868;28;20038;-68
2023/02/06 05:37:16;;;;;;;21.10;18.88;;;;;;;-1.11;100.00;104007.03;10095384;28;20043;-68
2023/02/06 05:42:12;;;;;;;25.00;20.52;;;;;;;-1.22;100.00;104026.09;10094510;28;20750;-68
2023/02/06 05:47:09;;;;;;;26.48;18.90;;;;;;;-1.21;100.00;104040.38;10092587;28;20145;-68
2023/02/06 05:52:06;;;;;;;26.55;19.70;;;;;;;-1.20;100.00;104037.53;10091408;28;20046;-68
2023/02/06 05:57:03;;;;;;;30.42;19.80;;;;;;;-1.14;100.00;104034.22;10094388;28;20054;-68
2023/02/06 06:01:59;;;;;;;37.08;20.45;;;;;;;-1.07;100.00;104037.09;10087959;28;20075;-68
2023/02/06 06:06:56;;;;;;;31.92;21.83;;;;;;;-1.15;100.00;104045.94;10097783;28;20055;-68
2023/02/06 06:11:53;;;;;;;27.42;21.30;;;;;;;-1.13;100.00;104040.44;10103740;28;20063;-68
2023/02/06 06:16:49;;;;;;;27.30;21.40;;;;;;;-1.20;100.00;104044.75;10093981;28;20171;-68
2023/02/06 06:21:46;;;;;;;26.92;22.98;;;;;;;-1.15;100.00;104045.94;10083111;28;20059;-68
2023/02/06 06:26:42;;;;;;;31.75;22.40;;;;;;;-1.14;100.00;104039.59;10090511;28;20073;-68
2023/02/06 06:31:39;;;;;;;25.52;21.58;;;;;;;-1.16;100.00;104038.03;10083986;28;20058;-68
2023/02/06 06:36:35;;;;;;;25.90;23.20;;;;;;;-1.15;100.00;104040.56;10088584;28;20058;-68
2023/02/06 06:41:31;;;;;;;30.90;23.10;;;;;;;-1.18;100.00;104046.28;10093833;28;20078;-68
2023/02/06 06:46:28;;;;;;;32.28;22.40;;;;;;;-1.27;100.00;104042.69;10081999;28;20046;-68
2023/02/06 06:51:26;;;;;;;35.45;22.55;;;;;;;-1.40;100.00;104031.50;10085046;28;20137;-69
2023/02/06 06:56:23;;;;;;;24.00;21.83;;;;;;;-1.32;100.00;104039.63;10090205;28;20400;-68
2023/02/06 07:01:19;;;;;;;26.10;22.27;;;;;;;-1.34;100.00;104041.63;10101148;28;20046;-68
2023/02/06 07:06:16;;;;;;;24.10;21.35;;;;;;;-1.32;100.00;104044.16;10093246;28;20642;-68
2023/02/06 07:11:14;;;;;;;26.08;22.27;;;;;;;-1.27;100.00;104041.84;10077840;28;20085;-68
2023/02/06 07:16:11;;;;;;;23.73;21.27;;;;;;;-1.17;100.00;104052.47;10089883;28;20049;-68
2023/02/06 07:21:08;;;;;;;27.65;21.95;;;;;;;-1.02;100.00;104055.41;10096061;28;20047;-68
2023/02/06 07:26:05;;;;;;;27.17;20.38;;;;;;;-0.91;100.00;104057.84;10090857;28;20671;-69
2023/02/06 07:31:03;;;;;;;29.30;20.33;;;;;;;-0.70;100.00;104066.34;10086663;28;20528;-69
2023/02/06 07:36:00;;;;;;;23.75;20.20;;;;;;;-0.49;100.00;104073.16;10093143;28;20517;-68
2023/02/06 07:41:01;;;;;;;23.90;20.95;;;;;;;-0.31;100.00;104084.69;10094669;28;20075;-69
2023/02/06 07:46:02;;;;;;;27.42;21.17;;;;;;;-0.19;100.00;104082.53;10091008;28;20220;-68
2023/02/06 07:51:06;;;;;;;29.77;20.85;;;;;;;-0.14;100.00;104082.91;10080864;28;20067;-68
2023/02/06 07:56:16;;;;;;;26.98;20.27;;;;;;;-0.02;100.00;104092.34;10085016;28;20047;-68
2023/02/06 08:01:12;;;;;;;29.88;22.15;;;;;;;0.13;100.00;104084.47;10080583;28;20424;-69
2023/02/06 08:06:14;;;;;;;25.88;20.63;;;;;;;0.18;100.00;104071.34;10105681;28;20058;-69
2023/02/06 08:11:13;;;;;;;25.27;20.20;;;;;;;0.33;100.00;104078.81;10082903;28;20079;-68
2023/02/06 08:16:16;;;;;;;32.13;22.10;;;;;;;0.43;100.00;104079.47;10092248;28;20050;-68
2023/02/06 08:21:20;;;;;;;29.15;21.90;;;;;;;0.63;100.00;104080.00;10098790;28;20047;-68
2023/02/06 08:26:17;;;;;;;33.20;21.65;;;;;;;0.78;100.00;104093.59;10099620;28;20047;-68
2023/02/06 08:31:16;;;;;;;31.00;26.48;;;;;;;0.88;100.00;104099.66;10107156;28;20069;-69
2023/02/06 08:36:14;;;;;;;42.15;30.52;;;;;;;0.94;100.00;104080.13;10099161;28;20039;-68
2023/02/06 08:41:19;;;;;;;41.00;28.45;;;;;;;0.98;100.00;104089.56;10101351;28;20138;-66
2023/02/06 08:46:17;;;;;;;35.30;27.42;;;;;;;0.99;100.00;104080.44;10103160;28;20055;-68
2023/02/06 08:51:14;;;;;;;29.23;24.73;;;;;;;0.88;100.00;104083.47;10096424;28;20059;-68
2023/02/06 08:56:11;;;;;;;28.17;24.75;;;;;;;0.94;100.00;104081.97;10088516;28;20058;-69
2023/02/06 09:01:12;;;;;;;37.25;25.85;;;;;;;0.99;100.00;104080.44;10090844;28;20086;-69
2023/02/06 09:06:09;;;;;;;31.80;25.63;;;;;;;0.73;100.00;104077.13;10091380;28;20043;-70
2023/02/06 09:11:11;;;;;;;36.67;26.88;;;;;;;0.86;100.00;104077.44;10090621;28;20123;-69
2023/02/06 09:16:08;;;;;;;31.83;26.23;;;;;;;0.73;100.00;104071.72;10094609;28;20070;-69
2023/02/06 09:21:12;;;;;;;43.92;27.65;;;;;;;0.65;100.00;104060.94;10096026;28;20046;-69
2023/02/06 09:26:20;;;;;;;29.27;24.75;;;;;;;0.73;100.00;104060.97;10098632;28;20046;-70
2023/02/06 09:31:16;;;;;;;29.25;26.05;;;;;;;0.98;100.00;104051.81;10079396;28;20047;-70
2023/02/06 09:36:15;;;;;;;30.73;25.63;;;;;;;1.26;100.00;104071.13;10097302;28;20053;-69
2023/02/06 09:41:23;;;;;;;31.08;23.65;;;;;;;1.30;100.00;104077.03;10100496;28;20071;-70
2023/02/06 09:46:26;;;;;;;24.80;22.20;;;;;;;1.62;100.00;104080.59;10102380;28;20074;-69
2023/02/06 09:51:54;;;;;;;28.05;20.38;;;;;;;2.21;100.00;104085.53;10088271;28;20482;-70
2023/02/06 09:56:54;;;;;;;23.90;20.70;;;;;;;2.40;100.00;104078.81;10084976;28;20121;-70
2023/02/06 10:02:26;;;;;;;32.47;17.70;;;;;;;2.36;100.00;104083.72;10096050;28;20046;-70
2023/02/06 10:07:49;;;;;;;28.38;17.30;;;;;;;2.74;100.00;104081.91;10068608;28;20051;-70
2023/02/06 10:12:56;;;;;;;21.10;14.13;;;;;;;2.74;100.00;104070.25;10089084;28;20108;-70
2023/02/06 10:18:04;;;;;;;20.05;14.05;;;;;;;2.56;100.00;104073.28;10087653;28;20038;-69
2023/02/06 10:23:23;;;;;;;24.27;13.95;;;;;;;3.07;100.00;104089.69;10092795;28;20054;-70
2023/02/06 10:28:26;;;;;;;26.23;15.63;;;;;;;2.97;100.00;104089.13;10083758;28;20142;-69
2023/02/06 10:34:07;;;;;;;24.33;14.95;;;;;;;3.37;100.00;104081.59;10091828;28;20054;-69
2023/02/06 10:39:19;;;;;;;19.38;13.18;;;;;;;3.61;100.00;104071.50;10091099;28;20667;-69
2023/02/06 10:44:30;;;;;;;20.27;13.02;;;;;;;3.83;100.00;104075.94;10092034;28;20141;-69
2023/02/06 10:49:40;;;;;;;21.75;14.45;;;;;;;3.87;100.00;104060.97;10090073;28;20120;-70
2023/02/06 10:54:48;;;;;;;19.27;12.65;;;;;;;4.02;100.00;104057.41;10100288;28;20642;-70
2023/02/06 10:59:47;;;;;;;18.45;12.05;;;;;;;4.54;100.00;104057.06;10092455;28;20061;-69
2023/02/06 11:04:51;;;;;;;22.98;12.80;;;;;;;4.30;100.00;104061.03;10085591;28;20083;-70
2023/02/06 11:09:47;;;;;;;18.70;12.82;;;;;;;4.23;100.00;104054.72;10081425;28;20098;-70
2023/02/06 11:14:44;;;;;;;16.08;11.45;;;;;;;4.26;100.00;104065.16;10083474;28;20042;-70
2023/02/06 11:19:43;;;;;;;14.82;11.13;;;;;;;4.64;100.00;104059.44;10090983;28;20058;-68
2023/02/06 11:25:01;;;;;;;18.77;10.90;;;;;;;4.67;100.00;104056.34;10087014;28;20535;-70
2023/02/06 11:30:05;;;;;;;14.93;11.13;;;;;;;4.50;100.00;104050.34;10074072;28;20043;-70
2023/02/06 11:35:15;;;;;;;17.98;11.02;;;;;;;4.23;100.00;104060.13;10082280;28;20131;-68
2023/02/06 11:40:17;;;;;;;21.35;13.57;;;;;;;4.65;100.00;104053.00;10097948;28;20149;-69
2023/02/06 11:45:31;;;;;;;17.13;12.13;;;;;;;4.28;100.00;104054.97;10101266;28;20520;-69
2023/02/06 11:50:36;;;;;;;20.35;11.77;;;;;;;4.73;100.00;104060.97;10079268;28;20101;-69
2023/02/06 11:55:34;;;;;;;16.50;11.07;;;;;;;4.98;100.00;104063.25;10094084;28;20051;-69
2023/02/06 12:00:34;;;;;;;15.88;11.18;;;;;;;4.33;100.00;104071.47;10084896;28;20129;-69
2023/02/06 12:05:40;;;;;;;21.02;13.65;;;;;;;4.05;100.00;104084.09;10086369;28;20043;-70
2023/02/06 12:10:51;;;;;;;19.40;11.63;;;;;;;4.26;100.00;104080.56;10083833;28;20050;-69
2023/02/06 12:15:56;;;;;;;12.35;10.32;;;;;;;4.08;100.00;104084.53;10099204;28;20065;-70
2023/02/06 12:21:06;;;;;;;12.70;10.27;;;;;;;4.35;100.00;104077.53;10104615;28;20043;-69
2023/02/06 12:26:10;;;;;;;13.57;8.95;;;;;;;3.67;100.00;104071.59;10088442;28;20058;-69
2023/02/06 12:31:15;;;;;;;14.23;11.30;;;;;;;4.06;100.00;104069.53;10089729;28;20504;-69
2023/02/06 12:36:15;;;;;;;15.32;9.90;;;;;;;6.00;100.00;104051.66;10096728;28;20054;-69
2023/02/06 12:41:35;;;;;;;11.80;9.63;;;;;;;5.92;100.00;104043.69;10097332;28;20054;-67
2023/02/06 12:46:31;;;;;;;11.98;9.02;;;;;;;5.02;100.00;104053.69;10087433;28;20101;-69
2023/02/06 12:51:28;;;;;;;16.92;10.40;;;;;;;4.54;100.00;104050.81;10084856;28;20065;-69
2023/02/06 12:56:35;;;;;;;11.38;8.93;;;;;;;4.63;100.00;104055.06;10087353;28;20047;-69
2023/02/06 13:01:39;;;;;;;16.35;9.60;;;;;;;6.56;100.00;104033.31;10096900;28;20078;-69
2023/02/06 13:06:50;;;;;;;15.95;9.93;;;;;;;8.80;100.00;104018.00;10098206;28;20395;-68
2023/02/06 13:11:47;;;;;;;14.90;10.70;;;;;;;9.90;100.00;104011.59;10110092;28;20094;-68
2023/02/06 13:17:08;;;;;;;12.45;10.18;;;;;;;10.16;100.00;103988.47;10094033;28;20051;-68
2023/02/06 13:22:08;;;;;;;11.38;9.45;;;;;;;9.65;100.00;103998.06;10095388;28;20043;-67
2023/02/06 13:27:07;;;;;;;15.32;10.95;;;;;;;8.72;100.00;103994.53;10093475;28;20409;-67
2023/02/06 13:32:09;;;;;;;15.40;10.30;;;;;;;7.55;100.00;103996.88;10103690;28;20047;-69
2023/02/06 13:37:31;;;;;;;13.90;11.00;;;;;;;7.49;100.00;104000.44;10103496;28;20131;-68
2023/02/06 13:42:49;;;;;;;14.88;10.70;;;;;;;8.08;100.00;104002.00;10106237;28;20134;-67
2023/02/06 13:48:03;;;;;;;12.68;8.73;;;;;;;8.71;100.00;103992.88;10104236;28;20050;-69
2023/02/06 13:53:14;;;;;;;14.98;9.10;;;;;;;9.31;100.00;103992.22;10090904;28;20134;-70
2023/02/06 13:58:29;;;;;;;18.15;9.52;;;;;;;8.93;100.00;104001.47;10093353;28;20134;-69
2023/02/06 14:03:32;;;;;;;15.00;9.00;;;;;;;8.40;100.00;104004.69;10092902;28;20134;-69
2023/02/06 14:09:01;;;;;;;12.20;9.00;;;;;;;8.57;100.00;104003.09;10094183;28;20134;-69
2023/02/06 14:14:13;;;;;;;18.83;11.70;;;;;;;8.43;100.00;104001.53;10093261;28;20145;-69
2023/02/06 14:19:42;;;;;;;12.40;9.57;;;;;;;7.99;100.00;104000.59;10099326;28;20038;-70
2023/02/06 14:25:20;;;;;;;12.05;9.02;;;;;;;8.56;100.00;104009.63;10086299;28;20054;-69
2023/02/06 14:30:36;;;;;;;16.40;10.88;;;;;;;8.97;100.00;104013.59;10090836;28;20078;-69
2023/02/06 14:35:36;;;;;;;13.50;10.63;;;;;;;8.68;100.00;104014.31;10087678;28;20074;-69
2023/02/06 14:40:38;;;;;;;17.13;10.38;;;;;;;9.81;100.00;104016.53;10099257;28;20068;-69
2023/02/06 14:45:39;;;;;;;14.75;10.25;;;;;;;10.22;100.00;104014.88;10091849;28;20081;-70
2023/02/06 14:50:41;;;;;;;14.32;9.95;;;;;;;10.51;100.00;104017.78;10087200;28;20051;-69
2023/02/06 14:55:40;;;;;;;16.10;8.95;;;;;;;10.44;100.00;104017.06;10093516;28;20047;-70
2023/02/06 15:00:36;;;;;;;13.43;8.85;;;;;;;9.62;100.00;104031.31;10103607;28;20047;-70
2023/02/06 15:05:34;;;;;;;11.82;9.07;;;;;;;7.26;100.00;104029.00;10102226;28;20057;-69
2023/02/06 15:10:34;;;;;;;16.27;9.00;;;;;;;6.83;100.00;104032.25;10096514;28;20047;-69
2023/02/06 15:15:33;;;;;;;13.18;8.63;;;;;;;5.92;100.00;104027.38;10094558;28;20063;-70
2023/02/06 15:20:35;;;;;;;15.23;9.40;;;;;;;5.42;100.00;104021.34;10082576;28;20105;-69
2023/02/06 15:25:37;;;;;;;17.17;9.82;;;;;;;4.79;100.00;104035.81;10103139;28;20109;-70
2023/02/06 15:30:35;;;;;;;11.55;8.70;;;;;;;4.61;100.00;104024.59;10099380;28;20043;-69
2023/02/06 15:35:37;;;;;;;12.30;9.20;;;;;;;4.64;100.00;104019.66;10099319;28;20050;-70
2023/02/06 15:40:41;;;;;;;12.38;9.65;;;;;;;4.41;100.00;104009.03;10097921;28;20061;-69
2023/02/06 15:45:39;;;;;;;15.18;9.65;;;;;;;4.05;100.00;104029.94;10088087;28;20514;-70
2023/02/06 15:50:35;;;;;;;13.77;10.05;;;;;;;3.89;100.00;104031.84;10098239;28;20054;-69
2023/02/06 15:55:34;;;;;;;13.73;10.55;;;;;;;3.67;100.00;104038.28;10098444;28;20129;-69
2023/02/06 16:00:33;;;;;;;17.42;11.90;;;;;;;3.54;100.00;104038.94;10099426;28;20050;-69
2023/02/06 16:05:39;;;;;;;17.67;12.63;;;;;;;3.33;100.00;104053.25;10089009;28;20233;-70
2023/02/06 16:10:38;;;;;;;17.75;13.23;;;;;;;3.24;100.00;104049.78;10090032;28;20047;-68
2023/02/06 16:15:39;;;;;;;15.18;12.90;;;;;;;3.06;100.00;104052.84;10092839;28;20515;-69
2023/02/06 16:20:39;;;;;;;14.77;13.13;;;;;;;2.94;100.00;104059.75;10091058;28;20447;-69
2023/02/06 16:25:36;;;;;;;16.48;14.48;;;;;;;2.74;100.00;104071.09;10091864;28;20511;-69
2023/02/06 16:30:34;;;;;;;16.75;14.80;;;;;;;2.58;100.00;104059.59;10086795;28;20110;-69
2023/02/06 16:35:32;;;;;;;16.85;15.25;;;;;;;2.40;100.00;104068.84;10081966;28;20055;-70
2023/02/06 16:40:28;;;;;;;17.88;16.05;;;;;;;2.31;100.00;104069.91;10092514;28;20402;-69
2023/02/06 16:45:26;;;;;;;18.92;17.00;;;;;;;2.17;100.00;104085.03;10111401;28;20051;-69
2023/02/06 16:50:22;;;;;;;18.92;17.13;;;;;;;2.08;100.00;104080.69;10100196;28;20133;-69
2023/02/06 16:55:21;;;;;;;19.33;17.38;;;;;;;1.96;100.00;104077.56;10098755;28;20158;-69
2023/02/06 17:00:23;;;;;;;18.42;16.73;;;;;;;1.92;100.00;104083.50;10093258;28;20050;-69
2023/02/06 17:05:23;;;;;;;22.67;20.27;;;;;;;1.77;100.00;104089.66;10101816;28;20641;-69
2023/02/06 17:10:23;;;;;;;21.63;19.42;;;;;;;1.66;100.00;104090.03;10097240;28;20055;-69
2023/02/06 17:15:20;;;;;;;22.67;20.27;;;;;;;1.57;100.00;104088.38;10099255;28;20544;-69
2023/02/06 17:20:31;;;;;;;23.15;20.80;;;;;;;1.51;100.00;104099.84;10102701;28;20051;-69
2023/02/06 17:25:28;;;;;;;22.90;20.45;;;;;;;1.43;100.00;104101.56;10107101;28;20508;-69
2023/02/06 17:30:25;;;;;;;26.20;21.40;;;;;;;1.35;100.00;104101.59;10101729;28;20054;-69
2023/02/06 17:35:22;;;;;;;21.77;19.48;;;;;;;1.23;100.00;104102.97;10094114;28;20056;-70
2023/02/06 17:40:25;;;;;;;24.15;21.73;;;;;;;1.13;100.00;104118.50;10093156;28;20054;-69
2023/02/06 17:45:22;;;;;;;23.25;21.05;;;;;;;1.10;100.00;104121.53;10103682;28;20507;-69
2023/02/06 17:50:21;;;;;;;23.15;19.70;;;;;;;1.03;100.00;104119.53;10105252;28;20043;-69
2023/02/06 17:55:17;;;;;;;23.13;20.95;;;;;;;1.03;100.00;104122.22;10100613;28;20412;-69
2023/02/06 18:00:16;;;;;;;23.65;21.20;;;;;;;0.92;100.00;104125.25;10103780;28;20078;-69
2023/02/06 18:05:12;;;;;;;23.15;20.73;;;;;;;0.91;100.00;104120.88;10094652;28;20393;-68
2023/02/06 18:10:10;;;;;;;24.63;22.08;;;;;;;0.83;100.00;104123.56;10107327;28;20141;-69
2023/02/06 18:15:07;;;;;;;25.30;22.38;;;;;;;0.71;100.00;104133.00;10091268;28;20043;-69
2023/02/06 18:20:04;;;;;;;24.27;21.67;;;;;;;0.72;100.00;104134.69;10083197;28;20382;-69
2023/02/06 18:25:03;;;;;;;23.67;21.25;;;;;;;0.61;100.00;104131.31;10092491;28;20049;-69
2023/02/06 18:30:03;;;;;;;27.02;23.25;;;;;;;0.60;100.00;104124.25;10098046;28;20063;-67
2023/02/06 18:34:59;;;;;;;25.85;23.08;;;;;;;0.52;100.00;104126.94;10103346;28;20049;-67
2023/02/06 18:39:56;;;;;;;26.67;23.60;;;;;;;0.41;100.00;104133.47;10092685;28;20085;-67
2023/02/06 18:44:52;;;;;;;25.80;22.98;;;;;;;0.37;100.00;104131.28;10087638;28;20082;-67
2023/02/06 18:49:49;;;;;;;25.65;22.10;;;;;;;0.26;100.00;104129.75;10103931;28;20157;-67
2023/02/06 18:54:47;;;;;;;25.17;22.95;;;;;;;0.18;100.00;104125.19;10098028;28;20565;-67
2023/02/06 18:59:43;;;;;;;26.63;23.73;;;;;;;0.15;100.00;104130.91;10098099;28;20534;-67
2023/02/06 19:04:39;;;;;;;29.58;24.10;;;;;;;0.13;100.00;104132.91;10106851;28;20130;-67
2023/02/06 19:09:37;;;;;;;29.27;25.35;;;;;;;0.03;100.00;104132.22;10096166;28;20047;-67
2023/02/06 19:14:33;;;;;;;28.33;25.50;;;;;;;-0.02;100.00;104118.41;10098544;28;20401;-67
2023/02/06 19:19:30;;;;;;;30.65;25.85;;;;;;;-0.05;100.00;104129.47;10098433;28;20057;-67
2023/02/06 19:24:27;;;;;;;27.95;24.50;;;;;;;-0.07;100.00;104136.88;10110485;28;20051;-67
2023/02/06 19:29:23;;;;;;;27.83;24.95;;;;;;;-0.20;100.00;104141.88;10104254;28;20138;-67
2023/02/06 19:34:34;;;;;;;29.60;26.60;;;;;;;-0.26;100.00;104138.81;10091199;28;21368;-67
2023/02/06 19:39:33;;;;;;;28.13;25.10;;;;;;;-0.27;100.00;104142.53;10093042;28;20078;-67
2023/02/06 19:44:30;;;;;;;28.73;25.95;;;;;;;-0.30;100.00;104152.75;10097440;28;20600;-67
2023/02/06 19:49:27;;;;;;;33.13;28.65;;;;;;;-0.34;100.00;104146.84;10101636;28;20460;-67
2023/02/06 19:54:24;;;;;;;28.05;25.17;;;;;;;-0.35;100.00;104145.16;10102259;28;20070;-67
2023/02/06 19:59:26;;;;;;;28.70;25.88;;;;;;;-0.39;100.00;104151.88;10103702;28;20390;-67
2023/02/06 20:04:25;;;;;;;28.83;25.70;;;;;;;-0.29;100.00;104160.66;10099553;28;20109;-67
2023/02/06 20:09:23;;;;;;;29.17;26.10;;;;;;;-0.33;100.00;104170.03;10105591;28;20153;-67
2023/02/06 20:14:19;;;;;;;31.27;28.40;;;;;;;-0.43;100.00;104158.56;10097945;28;20054;-67
2023/02/06 20:19:19;;;;;;;30.00;27.08;;;;;;;-0.45;100.00;104171.31;10099844;28;20528;-66
2023/02/06 20:24:22;;;;;;;31.02;27.85;;;;;;;-0.46;100.00;104170.50;10096386;28;20046;-67
2023/02/06 20:29:22;;;;;;;35.90;27.98;;;;;;;-0.51;100.00;104172.81;10099113;28;20059;-67
2023/02/06 20:34:18;;;;;;;31.90;28.02;;;;;;;-0.57;100.00;104177.97;10097398;28;20043;-67
2023/02/06 20:39:16;;;;;;;34.83;29.33;;;;;;;-0.70;100.00;104179.22;10100758;28;20043;-67
2023/02/06 20:44:13;;;;;;;34.70;31.25;;;;;;;-0.74;100.00;104171.63;10084350;28;20070;-67
2023/02/06 20:49:16;;;;;;;33.13;29.65;;;;;;;-0.76;100.00;104174.50;10093140;28;20608;-68
2023/02/06 20:54:12;;;;;;;33.10;29.52;;;;;;;-0.81;100.00;104176.81;10100259;28;20134;-67
2023/02/06 20:59:14;;;;;;;31.42;28.13;;;;;;;-0.84;100.00;104182.47;10096795;28;20628;-67
2023/02/06 21:04:13;;;;;;;31.98;28.65;;;;;;;-0.91;100.00;104181.41;10093961;28;20057;-66
2023/02/06 21:09:10;;;;;;;35.05;28.92;;;;;;;-0.95;100.00;104182.72;10096033;28;20070;-66
2023/02/06 21:14:07;;;;;;;34.83;30.42;;;;;;;-0.98;100.00;104180.34;10091512;28;20070;-66
2023/02/06 21:19:06;;;;;;;37.47;29.23;;;;;;;-0.99;100.00;104186.75;10096216;28;20051;-67
2023/02/06 21:24:03;;;;;;;34.03;29.55;;;;;;;-0.99;100.00;104194.81;10100536;28;20534;-65
2023/02/06 21:29:01;;;;;;;31.08;25.77;;;;;;;-0.87;100.00;104194.38;10107423;28;20043;-65
2023/02/06 21:34:12;;;;;;;31.38;27.30;;;;;;;-0.94;100.00;104197.84;10097642;28;20512;-65
2023/02/06 21:39:13;;;;;;;29.33;26.25;;;;;;;-0.91;100.00;104194.84;10108209;28;20051;-65
2023/02/06 21:44:09;;;;;;;28.85;25.83;;;;;;;-0.94;100.00;104187.94;10099767;28;20145;-65
2023/02/06 21:49:08;;;;;;;28.33;25.30;;;;;;;-0.96;100.00;104191.78;10103780;28;20745;-65
2023/02/06 21:54:04;;;;;;;28.85;25.90;;;;;;;-1.04;100.00;104197.09;10110912;28;20055;-65
2023/02/06 21:59:00;;;;;;;28.42;25.65;;;;;;;-1.03;100.00;104209.53;10102474;28;20050;-66
2023/02/06 22:03:57;;;;;;;28.17;25.30;;;;;;;-1.08;100.00;104212.69;10112593;28;20043;-65
2023/02/06 22:08:55;;;;;;;30.08;26.83;;;;;;;-1.13;100.00;104215.81;10110722;28;20163;-65
2023/02/06 22:13:56;;;;;;;27.67;24.92;;;;;;;-1.18;100.00;104218.13;10106329;28;20142;-65
2023/02/06 22:18:53;;;;;;;29.10;26.20;;;;;;;-1.23;100.00;104225.81;10098697;28;20490;-65
2023/02/06 22:23:51;;;;;;;29.20;26.35;;;;;;;-1.24;100.00;104234.84;10097412;28;20047;-65
2023/02/06 22:28:47;;;;;;;28.75;25.73;;;;;;;-1.35;100.00;104238.59;10107724;28;20461;-66